Time;durP1;ratioP1;P1;durP2;ratioP2;P2;SDS_P1;SDS_P2;PMS_P1;PMS_P2;Temp;Humidity;BMP_temperature;BMP_pressure;BME280_temperature;BME280_humidity;BME280_pressure;Samples;Min_cycle;Max_cycle;Signal;HPM_P1;HPM_P2
2023/11/06 00:01:44;;;;;;;4.65;1.27;;;9.40;99.90;;;;;;5027721;28;20032;-67
2023/11/06 00:04:10;;;;;;;3.85;0.90;;;9.40;99.90;;;;;;5028748;28;20033;-67
2023/11/06 00:06:36;;;;;;;7.28;1.17;;;9.40;99.90;;;;;;5029427;28;20445;-67
2023/11/06 00:09:05;;;;;;;10.65;1.45;;;9.50;99.90;;;;;;5027087;28;20033;-67
2023/11/06 00:11:31;;;;;;;6.50;1.42;;;9.40;99.90;;;;;;5027984;28;20056;-67
2023/11/06 00:13:56;;;;;;;7.70;2.25;;;9.50;99.90;;;;;;5043568;28;20095;-67
2023/11/06 00:16:22;;;;;;;5.93;0.93;;;9.40;99.90;;;;;;5028711;28;20075;-67
2023/11/06 00:18:48;;;;;;;6.00;0.93;;;9.50;99.90;;;;;;5027599;28;20070;-67
2023/11/06 00:21:14;;;;;;;2.45;1.00;;;9.40;99.90;;;;;;5028177;28;20060;-66
2023/11/06 00:23:40;;;;;;;3.03;1.25;;;9.40;99.90;;;;;;5026047;28;20413;-67
2023/11/06 00:26:06;;;;;;;6.78;1.85;;;9.40;99.90;;;;;;5028813;28;20036;-67
2023/11/06 00:28:32;;;;;;;4.40;1.55;;;9.40;99.90;;;;;;4988115;28;20506;-67
2023/11/06 00:30:58;;;;;;;1.85;0.90;;;9.40;99.90;;;;;;5007722;28;20111;-67
2023/11/06 00:33:24;;;;;;;4.45;1.20;;;9.40;99.90;;;;;;5006307;28;20478;-66
2023/11/06 00:35:50;;;;;;;14.48;1.25;;;9.50;99.90;;;;;;5008820;28;21153;-66
2023/11/06 00:38:16;;;;;;;3.00;1.20;;;9.50;99.90;;;;;;5006727;28;21313;-68
2023/11/06 00:40:42;;;;;;;6.15;1.30;;;9.50;99.90;;;;;;5009190;28;20033;-66
2023/11/06 00:43:08;;;;;;;4.57;1.10;;;9.60;99.90;;;;;;5007458;28;20494;-67
2023/11/06 00:45:34;;;;;;;7.00;1.48;;;9.60;99.90;;;;;;5009063;28;20056;-67
2023/11/06 00:48:00;;;;;;;5.93;0.95;;;9.60;99.90;;;;;;5007977;28;20087;-67
2023/11/06 00:50:26;;;;;;;13.25;1.20;;;9.60;99.90;;;;;;5026970;28;20037;-68
2023/11/06 00:52:51;;;;;;;5.55;1.35;;;9.60;99.90;;;;;;5006851;28;20025;-67
2023/11/06 00:55:17;;;;;;;7.80;1.15;;;9.60;99.90;;;;;;5026097;28;20030;-68
2023/11/06 00:57:46;;;;;;;4.57;0.75;;;9.60;99.90;;;;;;5008681;28;20843;-68
2023/11/06 01:00:15;;;;;;;3.97;1.27;;;9.70;99.90;;;;;;5008649;28;20083;-68
2023/11/06 01:02:41;;;;;;;2.05;0.98;;;9.60;99.90;;;;;;5006160;28;20137;-68
2023/11/06 01:05:07;;;;;;;4.75;1.00;;;9.60;99.90;;;;;;5021725;28;20132;-69
2023/11/06 01:07:32;;;;;;;2.00;0.90;;;9.60;99.90;;;;;;5008653;28;20573;-67
2023/11/06 01:09:58;;;;;;;5.32;1.02;;;9.60;99.90;;;;;;5024442;28;20894;-67
2023/11/06 01:12:24;;;;;;;5.43;1.20;;;9.70;99.90;;;;;;5008147;28;20124;-67
2023/11/06 01:14:49;;;;;;;4.85;1.33;;;9.70;99.90;;;;;;5007677;28;20779;-67
2023/11/06 01:17:15;;;;;;;3.58;0.90;;;9.70;99.90;;;;;;5022829;28;20030;-67
2023/11/06 01:19:41;;;;;;;17.23;1.35;;;9.70;99.90;;;;;;5004771;28;20098;-67
2023/11/06 01:22:07;;;;;;;8.68;0.90;;;9.70;99.90;;;;;;5004907;28;20028;-67
2023/11/06 01:24:32;;;;;;;6.45;1.00;;;9.70;99.90;;;;;;5007890;28;20087;-68
2023/11/06 01:26:58;;;;;;;6.25;1.20;;;9.70;99.90;;;;;;5006039;28;20029;-68
2023/11/06 01:29:24;;;;;;;2.78;0.85;;;9.70;99.90;;;;;;5005855;28;20080;-68
2023/11/06 01:31:50;;;;;;;4.38;1.00;;;9.70;99.90;;;;;;5027958;28;20036;-68
2023/11/06 01:34:15;;;;;;;7.63;1.38;;;9.80;99.90;;;;;;5025346;28;20033;-68
2023/11/06 01:36:42;;;;;;;14.85;1.92;;;9.80;99.90;;;;;;5026698;28;20021;-68
2023/11/06 01:39:10;;;;;;;3.65;1.38;;;9.80;99.90;;;;;;5015336;28;20048;-67
2023/11/06 01:41:38;;;;;;;9.18;1.85;;;9.80;99.90;;;;;;5026943;28;20033;-67
2023/11/06 01:44:06;;;;;;;4.40;1.10;;;9.80;99.90;;;;;;5024276;28;20025;-67
2023/11/06 01:46:33;;;;;;;4.63;1.23;;;9.80;99.90;;;;;;5026662;28;20028;-67
2023/11/06 01:49:00;;;;;;;7.95;1.20;;;9.80;99.90;;;;;;5045288;28;20040;-67
2023/11/06 01:51:28;;;;;;;5.47;1.00;;;9.80;99.90;;;;;;5044261;28;20580;-67
2023/11/06 01:53:55;;;;;;;7.15;0.85;;;9.80;99.90;;;;;;5023214;28;20112;-67
2023/11/06 01:56:21;;;;;;;4.40;0.88;;;9.90;99.90;;;;;;5026461;28;20033;-67
2023/11/06 01:58:47;;;;;;;6.22;1.42;;;9.80;99.90;;;;;;5042956;28;20044;-67
2023/11/06 02:01:13;;;;;;;3.72;0.93;;;9.80;99.90;;;;;;5026880;28;20021;-67
2023/11/06 02:03:42;;;;;;;2.35;1.33;;;9.80;99.90;;;;;;5044486;28;20025;-68
2023/11/06 02:06:08;;;;;;;6.40;1.60;;;9.80;99.90;;;;;;5042773;28;20036;-67
2023/11/06 02:08:34;;;;;;;12.95;1.60;;;9.80;99.90;;;;;;5043532;28;20043;-67
2023/11/06 02:11:04;;;;;;;5.60;1.90;;;9.80;99.90;;;;;;5027944;28;20092;-69
2023/11/06 02:13:30;;;;;;;5.75;1.10;;;9.80;99.90;;;;;;5025805;28;20041;-67
2023/11/06 02:15:56;;;;;;;8.13;1.05;;;9.80;99.90;;;;;;5039918;28;20037;-67
2023/11/06 02:18:21;;;;;;;2.17;0.90;;;9.80;99.90;;;;;;5025496;28;20037;-68
2023/11/06 02:20:50;;;;;;;4.03;1.42;;;9.90;99.90;;;;;;5027654;28;20029;-67
2023/11/06 02:23:16;;;;;;;6.72;0.98;;;9.90;99.90;;;;;;5022033;28;20121;-67
2023/11/06 02:25:41;;;;;;;7.65;1.92;;;9.90;99.90;;;;;;5025806;28;20116;-67
2023/11/06 02:28:08;;;;;;;5.25;1.23;;;9.90;99.90;;;;;;5016800;28;20167;-67
2023/11/06 02:30:37;;;;;;;5.15;1.20;;;9.90;99.90;;;;;;5026499;28;20029;-67
2023/11/06 02:33:03;;;;;;;7.20;1.35;;;9.90;99.90;;;;;;5024171;28;20041;-67
2023/11/06 02:35:28;;;;;;;9.10;1.60;;;9.90;99.90;;;;;;5026640;28;20029;-68
2023/11/06 02:37:54;;;;;;;7.38;0.90;;;9.90;99.90;;;;;;5025640;28;20025;-67
2023/11/06 02:40:20;;;;;;;6.00;1.08;;;9.90;99.90;;;;;;5026043;28;20120;-67
2023/11/06 02:42:46;;;;;;;8.65;1.10;;;9.90;99.90;;;;;;5026404;28;20504;-67
2023/11/06 02:45:11;;;;;;;3.22;0.90;;;9.90;99.90;;;;;;5025811;28;20064;-67
2023/11/06 02:47:37;;;;;;;6.45;1.40;;;9.90;99.90;;;;;;5026712;28;20033;-67
2023/11/06 02:50:05;;;;;;;6.90;1.30;;;9.90;99.90;;;;;;5028314;28;20028;-67
2023/11/06 02:52:31;;;;;;;3.65;1.25;;;9.90;99.90;;;;;;5028921;28;20071;-67
2023/11/06 02:54:57;;;;;;;3.40;1.20;;;10.00;99.90;;;;;;5030251;28;20025;-67
2023/11/06 02:57:23;;;;;;;1.98;1.27;;;10.00;99.90;;;;;;5030860;28;20032;-67
2023/11/06 02:59:48;;;;;;;6.85;1.08;;;10.00;99.90;;;;;;5030250;28;20025;-68
2023/11/06 03:02:14;;;;;;;2.35;0.95;;;9.90;99.90;;;;;;5030612;28;20123;-68
2023/11/06 03:04:40;;;;;;;5.22;0.90;;;9.90;99.90;;;;;;5030973;28;20025;-67
2023/11/06 03:07:06;;;;;;;5.22;0.90;;;10.00;99.90;;;;;;5028809;28;20024;-67
2023/11/06 03:09:32;;;;;;;3.75;0.80;;;9.90;99.90;;;;;;5046661;28;20058;-67
2023/11/06 03:11:58;;;;;;;3.63;1.10;;;9.90;99.90;;;;;;5029535;28;20467;-67
2023/11/06 03:14:23;;;;;;;7.63;1.40;;;10.00;99.90;;;;;;5047731;28;20029;-67
2023/11/06 03:16:49;;;;;;;3.92;0.70;;;10.00;99.90;;;;;;5029655;28;20651;-67
2023/11/06 03:19:15;;;;;;;7.60;1.10;;;10.00;99.90;;;;;;5047437;28;20044;-67
2023/11/06 03:21:40;;;;;;;2.25;0.77;;;10.00;99.90;;;;;;5028367;28;20509;-67
2023/11/06 03:24:07;;;;;;;3.55;1.35;;;10.00;99.90;;;;;;5029512;28;20029;-67
2023/11/06 03:26:34;;;;;;;1.83;0.68;;;10.00;99.90;;;;;;5027980;28;20029;-66
2023/11/06 03:29:00;;;;;;;3.78;1.50;;;10.00;99.90;;;;;;5000523;28;20045;-67
2023/11/06 03:31:26;;;;;;;2.95;0.80;;;10.00;99.90;;;;;;5047192;28;20080;-66
2023/11/06 03:33:52;;;;;;;2.47;0.60;;;10.00;99.90;;;;;;5028380;28;20037;-67
2023/11/06 03:36:18;;;;;;;5.28;0.98;;;10.00;99.90;;;;;;5027171;28;20124;-67
2023/11/06 03:38:43;;;;;;;5.18;1.30;;;10.00;99.90;;;;;;5024666;28;20100;-67
2023/11/06 03:41:09;;;;;;;2.25;0.60;;;10.00;99.90;;;;;;5037363;28;20021;-68
2023/11/06 03:43:34;;;;;;;7.30;1.20;;;10.00;99.90;;;;;;5027903;28;21595;-67
2023/11/06 03:46:00;;;;;;;2.22;0.80;;;10.00;99.90;;;;;;5027592;28;20041;-67
2023/11/06 03:48:26;;;;;;;9.00;2.10;;;10.00;99.90;;;;;;5025932;28;20553;-68
2023/11/06 03:50:51;;;;;;;4.95;1.98;;;10.00;99.90;;;;;;5046661;28;20091;-67
2023/11/06 03:53:17;;;;;;;3.92;0.93;;;9.90;99.90;;;;;;5027847;28;20032;-71
2023/11/06 03:55:43;;;;;;;2.58;1.13;;;10.00;99.90;;;;;;5028939;28;20033;-67
2023/11/06 03:58:08;;;;;;;1.35;0.93;;;10.00;99.90;;;;;;5028734;28;20017;-67
2023/11/06 04:00:34;;;;;;;8.05;1.02;;;9.90;99.90;;;;;;5028189;28;20568;-67
2023/11/06 04:03:00;;;;;;;5.10;0.88;;;9.90;99.90;;;;;;5026791;28;20040;-69
2023/11/06 04:05:26;;;;;;;5.57;1.33;;;9.90;99.90;;;;;;5028170;28;20037;-67
2023/11/06 04:07:52;;;;;;;5.07;1.33;;;9.90;99.90;;;;;;5026462;28;20075;-67
2023/11/06 04:10:18;;;;;;;4.20;0.98;;;9.80;99.90;;;;;;5028177;28;20028;-67
2023/11/06 04:12:44;;;;;;;4.00;0.77;;;9.80;99.90;;;;;;5029110;28;20514;-68
2023/11/06 04:15:10;;;;;;;6.93;1.70;;;9.70;99.90;;;;;;5029930;28;20128;-68
2023/11/06 04:17:38;;;;;;;5.18;1.58;;;9.70;99.90;;;;;;5026779;28;20051;-67
2023/11/06 04:20:06;;;;;;;5.93;1.23;;;9.60;99.90;;;;;;5028088;28;20445;-67
2023/11/06 04:22:31;;;;;;;5.38;1.35;;;9.60;99.90;;;;;;5027387;28;20516;-67
2023/11/06 04:24:57;;;;;;;5.63;1.42;;;9.50;99.90;;;;;;5044079;28;20036;-67
2023/11/06 04:27:23;;;;;;;3.50;0.77;;;9.60;99.90;;;;;;5026456;28;20041;-69
2023/11/06 04:29:48;;;;;;;4.65;0.70;;;9.60;99.90;;;;;;5017567;28;20041;-67
2023/11/06 04:32:14;;;;;;;1.15;0.77;;;9.60;99.90;;;;;;5045028;28;20038;-67
2023/11/06 04:34:40;;;;;;;5.10;0.93;;;9.60;99.90;;;;;;5042856;28;20040;-67
2023/11/06 04:37:12;;;;;;;2.20;0.90;;;9.70;99.90;;;;;;5027288;28;20490;-67
2023/11/06 04:39:39;;;;;;;4.93;0.80;;;9.60;99.90;;;;;;5028904;28;20579;-67
2023/11/06 04:42:11;;;;;;;3.95;0.82;;;9.70;99.90;;;;;;5028315;28;20025;-67
2023/11/06 04:44:37;;;;;;;2.35;0.85;;;9.60;99.90;;;;;;5027455;28;20021;-69
2023/11/06 04:47:03;;;;;;;1.63;0.68;;;9.60;99.90;;;;;;5028996;28;20033;-67
2023/11/06 04:49:29;;;;;;;2.20;0.50;;;9.60;99.90;;;;;;5028723;28;20036;-68
2023/11/06 04:51:55;;;;;;;1.70;0.70;;;9.70;99.90;;;;;;5046752;28;20123;-67
2023/11/06 04:54:20;;;;;;;5.47;1.25;;;9.70;99.90;;;;;;5028558;28;20037;-67
2023/11/06 04:56:49;;;;;;;5.22;0.90;;;9.60;99.90;;;;;;5028154;28;20144;-69
2023/11/06 04:59:15;;;;;;;2.60;0.80;;;9.60;99.90;;;;;;5027859;28;20524;-68
2023/11/06 05:01:41;;;;;;;6.15;1.55;;;9.60;99.90;;;;;;5028783;28;20032;-67
2023/11/06 05:04:07;;;;;;;3.28;1.02;;;9.70;99.90;;;;;;5028467;28;20024;-67
2023/11/06 05:06:33;;;;;;;4.53;0.80;;;9.70;99.90;;;;;;5044855;28;20017;-67
2023/11/06 05:09:00;;;;;;;3.28;0.70;;;9.60;99.90;;;;;;5026003;28;20739;-68
2023/11/06 05:11:25;;;;;;;3.47;1.65;;;9.60;99.90;;;;;;5044945;28;20053;-67
2023/11/06 05:13:53;;;;;;;3.30;1.13;;;9.60;99.90;;;;;;5042186;28;20048;-66
2023/11/06 05:16:19;;;;;;;4.10;1.10;;;9.60;99.90;;;;;;5027214;28;20052;-67
2023/11/06 05:18:45;;;;;;;4.30;0.90;;;9.60;99.90;;;;;;5043772;28;20491;-68
2023/11/06 05:21:10;;;;;;;6.13;1.10;;;9.60;99.90;;;;;;5043622;28;20171;-66
2023/11/06 05:23:36;;;;;;;3.75;1.30;;;9.60;99.90;;;;;;5026462;28;20033;-68
2023/11/06 05:26:02;;;;;;;6.05;2.13;;;9.60;99.90;;;;;;5027610;28;20110;-68
2023/11/06 05:28:28;;;;;;;5.88;1.30;;;9.60;99.90;;;;;;4998193;28;20512;-68
2023/11/06 05:30:54;;;;;;;4.55;1.08;;;9.60;99.90;;;;;;5027438;28;20375;-69
2023/11/06 05:33:20;;;;;;;5.30;1.20;;;9.60;99.90;;;;;;5028297;28;20029;-68
2023/11/06 05:35:45;;;;;;;6.28;0.95;;;9.60;99.90;;;;;;5045603;28;20143;-68
2023/11/06 05:38:11;;;;;;;3.90;1.13;;;9.60;99.90;;;;;;5040270;28;20037;-66
2023/11/06 05:40:37;;;;;;;4.97;1.30;;;9.60;99.90;;;;;;5025273;28;20201;-67
2023/11/06 05:43:03;;;;;;;6.88;1.50;;;9.60;99.90;;;;;;5024633;28;20032;-67
2023/11/06 05:45:28;;;;;;;9.57;1.55;;;9.60;99.90;;;;;;5027080;28;20029;-67
2023/11/06 05:47:55;;;;;;;9.82;2.33;;;9.60;99.90;;;;;;5027336;28;20031;-67
2023/11/06 05:50:21;;;;;;;6.47;1.38;;;9.60;99.90;;;;;;5025734;28;20036;-67
2023/11/06 05:52:46;;;;;;;16.23;2.35;;;9.60;99.90;;;;;;5026447;28;20037;-67
2023/11/06 05:55:12;;;;;;;7.35;2.60;;;9.60;99.90;;;;;;5044539;28;20029;-67
2023/11/06 05:57:38;;;;;;;10.45;1.65;;;9.60;99.90;;;;;;5043995;28;20025;-67
2023/11/06 06:00:05;;;;;;;8.55;1.40;;;9.60;99.90;;;;;;5027406;28;20032;-67
2023/11/06 06:02:31;;;;;;;4.82;1.30;;;9.60;99.90;;;;;;5026676;28;20055;-66
2023/11/06 06:04:57;;;;;;;11.55;1.63;;;9.70;99.90;;;;;;5026649;28;20025;-67
2023/11/06 06:07:22;;;;;;;4.70;1.08;;;9.60;99.90;;;;;;5043966;28;20021;-66
2023/11/06 06:09:48;;;;;;;6.70;1.75;;;9.60;99.90;;;;;;5044306;28;20037;-66
2023/11/06 06:12:14;;;;;;;8.60;1.48;;;9.60;99.90;;;;;;5025082;28;20033;-67
2023/11/06 06:14:40;;;;;;;6.25;1.25;;;9.70;99.90;;;;;;5025970;28;20033;-66
2023/11/06 06:17:06;;;;;;;6.57;1.70;;;9.70;99.90;;;;;;5044753;28;20030;-67
2023/11/06 06:19:32;;;;;;;8.23;1.85;;;9.60;99.90;;;;;;5042214;28;20067;-66
2023/11/06 06:21:57;;;;;;;10.40;1.70;;;9.60;99.90;;;;;;5042888;28;20028;-67
2023/11/06 06:24:25;;;;;;;10.38;2.15;;;9.60;99.90;;;;;;5027942;28;20037;-67
2023/11/06 06:26:50;;;;;;;10.38;1.85;;;9.60;99.90;;;;;;5030411;28;20025;-67
2023/11/06 06:29:16;;;;;;;8.73;2.95;;;9.40;99.90;;;;;;5003596;28;20049;-67
2023/11/06 06:31:42;;;;;;;8.73;1.88;;;9.30;99.90;;;;;;5028987;28;20037;-68
2023/11/06 06:34:07;;;;;;;5.47;1.58;;;9.20;99.90;;;;;;5029887;28;20120;-67
2023/11/06 06:36:33;;;;;;;11.65;1.70;;;9.10;99.90;;;;;;5030072;28;20029;-67
2023/11/06 06:38:59;;;;;;;16.02;2.15;;;9.00;99.90;;;;;;5029634;28;20090;-67
2023/11/06 06:41:25;;;;;;;11.90;1.70;;;8.90;99.90;;;;;;5030759;28;20052;-68
2023/11/06 06:43:50;;;;;;;9.95;2.15;;;8.80;99.90;;;;;;5031223;28;20490;-67
2023/11/06 06:46:16;;;;;;;5.22;1.40;;;8.80;99.90;;;;;;5031096;28;20033;-67
2023/11/06 06:48:42;;;;;;;10.57;2.72;;;8.70;99.90;;;;;;5030768;28;20037;-67
2023/11/06 06:51:08;;;;;;;6.82;1.70;;;8.60;99.90;;;;;;5030863;28;20079;-67
2023/11/06 06:53:36;;;;;;;9.63;1.45;;;8.60;99.90;;;;;;5031079;28;20094;-67
2023/11/06 06:56:02;;;;;;;14.52;2.08;;;8.60;99.90;;;;;;5031432;28;20826;-71
2023/11/06 06:58:28;;;;;;;9.05;1.75;;;8.60;99.90;;;;;;5030680;28;20056;-66
2023/11/06 07:00:53;;;;;;;12.18;2.20;;;8.60;99.90;;;;;;5030678;28;20029;-66
2023/11/06 07:03:19;;;;;;;7.55;1.02;;;8.60;99.90;;;;;;5046616;28;20433;-67
2023/11/06 07:05:47;;;;;;;14.10;2.25;;;8.60;99.90;;;;;;5028631;28;20409;-68
2023/11/06 07:08:13;;;;;;;11.98;1.30;;;8.70;99.90;;;;;;5027768;28;20984;-67
2023/11/06 07:10:38;;;;;;;10.77;2.13;;;8.70;99.90;;;;;;5029425;28;20086;-67
2023/11/06 07:13:04;;;;;;;5.80;1.52;;;8.70;99.90;;;;;;5030515;28;20032;-67
2023/11/06 07:15:30;;;;;;;10.20;1.65;;;8.70;99.90;;;;;;5028882;28;20030;-67
2023/11/06 07:18:01;;;;;;;10.60;2.45;;;8.70;99.90;;;;;;5028765;28;20554;-67
2023/11/06 07:20:27;;;;;;;11.45;2.13;;;8.70;99.90;;;;;;5026255;28;20028;-67
2023/11/06 07:22:54;;;;;;;14.63;2.05;;;8.80;99.90;;;;;;5047669;28;20506;-68
2023/11/06 07:25:20;;;;;;;7.45;1.63;;;8.80;99.90;;;;;;5030434;28;20039;-67
2023/11/06 07:27:46;;;;;;;8.52;1.90;;;8.80;99.90;;;;;;5028185;28;20449;-67
2023/11/06 07:30:12;;;;;;;10.13;2.05;;;8.90;99.90;;;;;;5003424;28;20045;-66
2023/11/06 07:32:38;;;;;;;5.35;1.42;;;8.90;99.90;;;;;;5028905;28;20095;-67
2023/11/06 07:35:04;;;;;;;9.32;2.08;;;9.00;99.90;;;;;;5025349;28;20032;-67
2023/11/06 07:37:30;;;;;;;6.63;1.63;;;9.00;99.90;;;;;;5028901;28;20044;-67
2023/11/06 07:39:56;;;;;;;8.25;1.63;;;9.00;99.90;;;;;;5028965;28;20040;-67
2023/11/06 07:42:22;;;;;;;7.15;1.35;;;9.10;99.90;;;;;;5029530;28;20043;-67
2023/11/06 07:44:48;;;;;;;7.53;1.77;;;9.10;99.90;;;;;;5027569;28;20029;-67
2023/11/06 07:47:14;;;;;;;10.40;2.13;;;9.20;99.90;;;;;;5029921;28;20387;-67
2023/11/06 07:49:39;;;;;;;12.57;1.45;;;9.20;99.90;;;;;;5029014;28;20029;-67
2023/11/06 07:52:10;;;;;;;10.02;1.58;;;9.20;99.90;;;;;;5028277;28;20055;-67
2023/11/06 07:54:40;;;;;;;4.72;1.50;;;9.30;99.90;;;;;;5029747;28;20048;-67
2023/11/06 07:57:06;;;;;;;10.35;1.75;;;9.30;99.90;;;;;;5029096;28;20398;-67
2023/11/06 07:59:31;;;;;;;13.82;1.65;;;9.40;99.90;;;;;;5047145;28;20021;-67
2023/11/06 08:01:59;;;;;;;7.00;1.80;;;9.40;99.90;;;;;;5028306;28;20028;-68
2023/11/06 08:04:25;;;;;;;7.43;1.45;;;9.50;99.90;;;;;;5029713;28;20029;-68
2023/11/06 08:06:51;;;;;;;9.85;2.67;;;9.50;99.90;;;;;;5029860;28;20029;-67
2023/11/06 08:09:16;;;;;;;7.18;1.35;;;9.60;99.90;;;;;;5041073;28;20032;-67
2023/11/06 08:11:42;;;;;;;10.07;1.58;;;9.70;99.90;;;;;;5047360;28;20025;-67
2023/11/06 08:14:08;;;;;;;7.10;2.40;;;9.70;99.90;;;;;;5025998;28;20059;-68
2023/11/06 08:16:37;;;;;;;6.75;1.80;;;9.70;99.90;;;;;;5044316;28;20040;-68
2023/11/06 08:19:03;;;;;;;11.10;1.95;;;9.80;99.90;;;;;;5028981;28;20129;-66
2023/11/06 08:21:28;;;;;;;14.82;1.45;;;9.80;99.90;;;;;;5047091;28;20505;-67
2023/11/06 08:23:54;;;;;;;10.27;1.85;;;9.90;99.90;;;;;;5034042;28;20013;-69
2023/11/06 08:26:20;;;;;;;9.45;2.47;;;9.90;99.90;;;;;;5049251;28;20020;-68
2023/11/06 08:28:46;;;;;;;6.28;1.67;;;9.90;99.90;;;;;;5028137;28;20106;-67
2023/11/06 08:31:16;;;;;;;8.98;1.45;;;10.00;99.90;;;;;;5019071;28;20045;-66
2023/11/06 08:33:41;;;;;;;8.85;1.05;;;10.00;99.90;;;;;;5029380;28;20040;-67
2023/11/06 08:36:08;;;;;;;3.92;1.63;;;10.10;99.90;;;;;;5028998;28;20033;-67
2023/11/06 08:38:33;;;;;;;3.83;1.52;;;10.10;99.90;;;;;;5028451;28;20522;-67
2023/11/06 08:40:59;;;;;;;5.75;1.33;;;10.20;99.90;;;;;;5027002;28;20040;-67
2023/11/06 08:43:25;;;;;;;9.45;1.50;;;10.20;99.90;;;;;;5026782;28;20033;-67
2023/11/06 08:45:51;;;;;;;5.55;1.20;;;10.30;99.90;;;;;;5028187;28;20071;-68
2023/11/06 08:48:17;;;;;;;5.18;1.27;;;10.30;99.90;;;;;;5045608;28;20037;-70
2023/11/06 08:50:42;;;;;;;9.50;1.48;;;10.40;99.90;;;;;;5029041;28;20120;-72
2023/11/06 08:53:08;;;;;;;10.38;1.80;;;10.40;99.90;;;;;;5045763;28;20709;-68
2023/11/06 08:55:34;;;;;;;10.05;1.85;;;10.40;99.90;;;;;;5026912;28;20033;-67
2023/11/06 08:57:59;;;;;;;8.70;1.65;;;10.50;99.90;;;;;;5029212;28;20025;-67
2023/11/06 09:00:27;;;;;;;13.43;1.60;;;10.60;99.90;;;;;;5027439;28;20036;-69
2023/11/06 09:02:53;;;;;;;10.48;1.60;;;10.60;99.90;;;;;;5046173;28;20044;-68
2023/11/06 09:05:19;;;;;;;7.40;1.20;;;10.70;99.90;;;;;;5044106;28;20144;-67
2023/11/06 09:07:45;;;;;;;11.02;1.70;;;10.70;99.90;;;;;;5026161;28;20475;-67
2023/11/06 09:10:11;;;;;;;4.65;1.13;;;10.80;99.90;;;;;;5041701;28;20102;-67
2023/11/06 09:12:37;;;;;;;11.13;1.73;;;10.80;99.90;;;;;;5044411;28;20036;-68
2023/11/06 09:15:03;;;;;;;6.57;1.58;;;10.90;99.90;;;;;;5027260;28;20029;-67
2023/11/06 09:17:30;;;;;;;10.27;2.58;;;11.00;99.90;;;;;;4985297;28;20063;-69
2023/11/06 09:19:56;;;;;;;9.57;2.38;;;11.10;99.90;;;;;;5025978;28;20064;-67
2023/11/06 09:22:23;;;;;;;11.27;1.90;;;11.40;99.90;;;;;;5026109;28;20041;-67
2023/11/06 09:24:48;;;;;;;13.45;2.33;;;11.70;99.90;;;;;;5042814;28;20031;-67
2023/11/06 09:27:14;;;;;;;6.13;1.33;;;11.90;99.90;;;;;;5027369;28;20033;-67
2023/11/06 09:29:40;;;;;;;4.55;1.55;;;12.00;99.90;;;;;;4998587;28;20032;-67
2023/11/06 09:32:05;;;;;;;12.40;2.22;;;12.10;99.90;;;;;;5005319;28;20120;-67
2023/11/06 09:34:31;;;;;;;6.03;1.45;;;12.20;99.90;;;;;;5023919;28;20037;-67
2023/11/06 09:36:57;;;;;;;5.60;1.20;;;12.40;99.90;;;;;;5025885;28;20029;-67
2023/11/06 09:39:23;;;;;;;11.65;1.45;;;12.50;99.90;;;;;;5023322;28;20037;-67
2023/11/06 09:41:50;;;;;;;7.53;1.48;;;12.50;99.90;;;;;;5024011;28;20104;-67
2023/11/06 09:44:18;;;;;;;15.20;2.17;;;12.50;99.90;;;;;;5006082;28;20894;-67
2023/11/06 09:46:45;;;;;;;11.25;1.70;;;12.40;99.90;;;;;;5008377;28;20033;-67
2023/11/06 09:49:16;;;;;;;6.68;1.33;;;12.40;99.90;;;;;;5007267;28;20033;-66
2023/11/06 09:51:51;;;;;;;9.25;1.60;;;12.40;99.90;;;;;;5020811;28;20032;-68
2023/11/06 09:54:19;;;;;;;7.85;1.70;;;12.40;99.90;;;;;;5002684;28;20038;-68
2023/11/06 09:56:48;;;;;;;10.73;1.40;;;12.50;99.90;;;;;;5023072;28;20118;-68
2023/11/06 09:59:16;;;;;;;10.25;1.88;;;12.60;99.90;;;;;;5009556;28;20034;-68
2023/11/06 10:01:41;;;;;;;7.75;2.20;;;12.60;99.90;;;;;;5010164;28;20044;-66
2023/11/06 10:04:08;;;;;;;5.25;1.02;;;12.80;99.90;;;;;;5029543;28;20716;-68
2023/11/06 10:06:34;;;;;;;7.72;1.60;;;13.10;99.90;;;;;;5030163;28;20040;-69
2023/11/06 10:09:18;;;;;;;9.35;2.55;;;13.30;99.90;;;;;;5028318;28;20473;-68
2023/11/06 10:11:43;;;;;;;7.45;1.38;;;13.50;99.90;;;;;;5011624;28;20037;-69
2023/11/06 10:14:09;;;;;;;7.65;1.70;;;13.40;99.90;;;;;;5006395;28;20033;-69
2023/11/06 10:16:36;;;;;;;10.50;1.48;;;13.70;99.90;;;;;;4985946;28;20562;-69
2023/11/06 10:19:13;;;;;;;6.90;1.30;;;13.80;99.90;;;;;;5028712;28;20028;-68
2023/11/06 10:21:43;;;;;;;8.80;1.33;;;13.80;99.90;;;;;;5026386;28;20029;-69
2023/11/06 10:24:13;;;;;;;9.93;1.50;;;14.00;99.90;;;;;;5010801;28;20160;-68
2023/11/06 10:26:39;;;;;;;12.68;5.35;;;14.00;99.90;;;;;;5029634;28;20026;-67
2023/11/06 10:29:19;;;;;;;3.17;1.60;;;14.00;99.90;;;;;;5028579;28;20025;-67
2023/11/06 10:31:47;;;;;;;11.07;3.88;;;13.70;99.90;;;;;;4977036;28;20049;-68
2023/11/06 10:34:26;;;;;;;11.32;2.33;;;13.50;99.90;;;;;;5030426;28;20037;-67
2023/11/06 10:37:05;;;;;;;11.27;3.10;;;13.40;99.90;;;;;;5044992;28;20040;-67
2023/11/06 10:39:31;;;;;;;17.90;5.60;;;13.30;99.90;;;;;;5020655;28;20041;-68
2023/11/06 10:42:04;;;;;;;6.25;2.08;;;13.20;99.90;;;;;;5029590;28;20402;-68
2023/11/06 10:44:34;;;;;;;13.32;5.57;;;13.20;99.90;;;;;;5046785;28;20040;-67
2023/11/06 10:47:07;;;;;;;11.90;4.43;;;13.10;99.90;;;;;;5030881;28;20045;-68
2023/11/06 10:49:47;;;;;;;9.20;2.55;;;13.00;99.90;;;;;;5048042;28;20045;-68
2023/11/06 10:52:14;;;;;;;8.90;2.13;;;12.90;99.90;;;;;;5047805;28;20483;-67
2023/11/06 10:54:41;;;;;;;46.35;18.92;;;12.80;99.90;;;;;;5047972;28;20098;-67
2023/11/06 10:57:08;;;;;;;30.13;15.40;;;12.80;99.90;;;;;;5026440;28;20999;-67
2023/11/06 10:59:34;;;;;;;25.40;14.63;;;12.70;99.90;;;;;;5045855;28;20094;-67
2023/11/06 11:02:03;;;;;;;13.10;2.30;;;12.70;99.90;;;;;;5030144;28;20029;-69
2023/11/06 11:04:32;;;;;;;8.23;2.20;;;12.80;99.90;;;;;;5043066;28;20036;-67
2023/11/06 11:06:59;;;;;;;14.48;2.20;;;12.70;99.90;;;;;;5028808;28;20037;-67
2023/11/06 11:09:26;;;;;;;7.90;2.42;;;12.80;99.90;;;;;;5029480;28;20055;-68
2023/11/06 11:11:52;;;;;;;12.73;3.05;;;12.90;99.90;;;;;;5001050;28;20082;-67
2023/11/06 11:14:18;;;;;;;31.52;10.40;;;13.00;99.90;;;;;;5029115;28;20111;-68
2023/11/06 11:16:50;;;;;;;17.25;6.35;;;13.00;99.90;;;;;;5048173;28;20029;-68
2023/11/06 11:19:33;;;;;;;7.53;2.63;;;13.00;99.90;;;;;;5047780;28;20078;-67
2023/11/06 11:22:05;;;;;;;13.13;3.88;;;12.90;99.90;;;;;;5046646;28;20071;-68
2023/11/06 11:24:47;;;;;;;6.55;1.77;;;12.80;99.90;;;;;;5013581;28;20128;-68
2023/11/06 11:27:27;;;;;;;7.32;1.23;;;12.70;99.90;;;;;;5029938;28;20025;-67
2023/11/06 11:29:58;;;;;;;8.43;1.85;;;12.70;99.90;;;;;;5046943;28;20025;-67
2023/11/06 11:32:30;;;;;;;10.07;3.88;;;12.70;99.90;;;;;;5044508;28;20091;-68
2023/11/06 11:35:20;;;;;;;5.28;1.70;;;12.70;99.90;;;;;;5027629;28;20036;-68
2023/11/06 11:37:56;;;;;;;11.23;2.65;;;12.80;99.90;;;;;;5029491;28;20029;-68
2023/11/06 11:40:22;;;;;;;4.45;1.73;;;12.70;99.90;;;;;;5028570;28;20021;-68
2023/11/06 11:42:48;;;;;;;8.93;2.75;;;12.50;99.90;;;;;;5029353;28;20035;-68
2023/11/06 11:45:35;;;;;;;8.18;2.10;;;12.40;99.90;;;;;;5043037;28;20047;-67
2023/11/06 11:48:01;;;;;;;15.20;4.88;;;12.30;99.90;;;;;;5045775;28;20025;-68
2023/11/06 11:50:26;;;;;;;14.68;5.57;;;12.20;99.90;;;;;;5045053;28;20041;-67
2023/11/06 11:52:55;;;;;;;10.00;3.13;;;12.20;99.90;;;;;;5047165;28;20425;-67
2023/11/06 11:55:31;;;;;;;5.05;2.00;;;12.10;99.90;;;;;;5018751;28;20040;-67
2023/11/06 11:58:04;;;;;;;3.97;1.55;;;12.10;99.90;;;;;;5018696;28;20103;-67
2023/11/06 12:00:36;;;;;;;9.48;2.47;;;12.10;99.90;;;;;;5041910;28;20037;-67
2023/11/06 12:03:09;;;;;;;13.57;2.60;;;12.10;99.90;;;;;;5027415;28;20429;-68
2023/11/06 12:05:37;;;;;;;9.02;2.03;;;12.10;99.90;;;;;;5046180;28;20025;-68
2023/11/06 12:08:23;;;;;;;4.88;1.10;;;12.10;99.90;;;;;;5028827;28;20114;-68
2023/11/06 12:10:50;;;;;;;8.07;2.15;;;12.10;99.90;;;;;;5026864;28;20060;-68
2023/11/06 12:13:23;;;;;;;4.97;1.65;;;12.20;99.90;;;;;;5042766;28;20037;-67
2023/11/06 12:15:50;;;;;;;9.32;2.15;;;12.40;99.90;;;;;;5058193;28;20062;-68
2023/11/06 12:18:21;;;;;;;17.15;5.05;;;12.50;99.90;;;;;;5028259;28;20075;-68
2023/11/06 12:20:47;;;;;;;10.50;3.42;;;12.50;99.90;;;;;;5048179;28;20028;-67
2023/11/06 12:23:13;;;;;;;3.92;1.50;;;12.50;99.90;;;;;;5044634;28;20017;-67
2023/11/06 12:25:39;;;;;;;11.35;2.92;;;12.50;99.90;;;;;;5042166;28;20043;-68
2023/11/06 12:28:12;;;;;;;6.57;2.42;;;12.40;99.90;;;;;;5029420;28;20140;-68
2023/11/06 12:30:40;;;;;;;9.50;2.75;;;12.40;99.90;;;;;;4999715;28;20045;-67
2023/11/06 12:33:23;;;;;;;4.45;1.48;;;12.40;99.90;;;;;;5026839;28;20113;-68
2023/11/06 12:35:53;;;;;;;6.70;1.75;;;12.40;99.90;;;;;;5024209;28;20120;-67
2023/11/06 12:38:36;;;;;;;5.75;1.05;;;12.40;99.90;;;;;;5024665;28;20060;-67
2023/11/06 12:41:05;;;;;;;4.95;1.42;;;12.50;99.90;;;;;;5026442;28;20407;-67
2023/11/06 12:43:32;;;;;;;6.90;1.10;;;12.70;99.90;;;;;;5026436;28;20057;-69
2023/11/06 12:45:59;;;;;;;1.30;0.90;;;12.90;99.90;;;;;;5024364;28;20029;-67
2023/11/06 12:48:29;;;;;;;0.85;0.52;;;13.10;99.90;;;;;;5024310;28;20037;-67
2023/11/06 12:50:59;;;;;;;3.83;1.00;;;13.10;99.90;;;;;;5024995;28;20100;-67